sensor_id;sensor_type;location;lat;lon;timestamp;temperature;humidity
58993;DHT22;44782;0.000;0.000;2022-07-15T00:01:56;26.50;39.60
58993;DHT22;44782;0.000;0.000;2022-07-15T00:04:12;26.50;39.60
58993;DHT22;44782;0.000;0.000;2022-07-15T00:06:28;26.50;39.70
58993;DHT22;44782;0.000;0.000;2022-07-15T00:08:43;26.50;39.80
58993;DHT22;44782;0.000;0.000;2022-07-15T00:10:59;26.40;39.70
58993;DHT22;44782;0.000;0.000;2022-07-15T00:13:15;26.40;39.50
58993;DHT22;44782;0.000;0.000;2022-07-15T00:15:31;26.40;39.70
58993;DHT22;44782;0.000;0.000;2022-07-15T00:17:48;26.40;39.60
58993;DHT22;44782;0.000;0.000;2022-07-15T00:20:05;26.40;39.70
58993;DHT22;44782;0.000;0.000;2022-07-15T00:22:21;26.30;39.60
58993;DHT22;44782;0.000;0.000;2022-07-15T00:24:36;26.30;39.70
58993;DHT22;44782;0.000;0.000;2022-07-15T00:26:52;26.30;39.60
58993;DHT22;44782;0.000;0.000;2022-07-15T00:29:08;26.30;39.30
58993;DHT22;44782;0.000;0.000;2022-07-15T00:31:23;26.30;39.50
58993;DHT22;44782;0.000;0.000;2022-07-15T00:33:39;26.30;39.60
58993;DHT22;44782;0.000;0.000;2022-07-15T00:35:55;26.30;39.50
58993;DHT22;44782;0.000;0.000;2022-07-15T00:38:11;26.30;39.40
58993;DHT22;44782;0.000;0.000;2022-07-15T00:40:27;26.20;39.20
58993;DHT22;44782;0.000;0.000;2022-07-15T00:42:43;26.20;39.40
58993;DHT22;44782;0.000;0.000;2022-07-15T00:45:01;26.20;39.40
58993;DHT22;44782;0.000;0.000;2022-07-15T00:47:17;26.20;39.50
58993;DHT22;44782;0.000;0.000;2022-07-15T00:49:33;26.10;39.10
58993;DHT22;44782;0.000;0.000;2022-07-15T00:51:54;26.20;39.20
58993;DHT22;44782;0.000;0.000;2022-07-15T00:54:13;26.10;38.90
58993;DHT22;44782;0.000;0.000;2022-07-15T00:56:31;26.10;39.10
58993;DHT22;44782;0.000;0.000;2022-07-15T00:58:49;26.10;39.30
58993;DHT22;44782;0.000;0.000;2022-07-15T01:01:07;26.10;39.20
58993;DHT22;44782;0.000;0.000;2022-07-15T01:03:26;26.10;39.20
58993;DHT22;44782;0.000;0.000;2022-07-15T01:05:43;26.10;39.00
58993;DHT22;44782;0.000;0.000;2022-07-15T01:08:00;26.00;39.20
58993;DHT22;44782;0.000;0.000;2022-07-15T01:10:17;26.00;39.20
58993;DHT22;44782;0.000;0.000;2022-07-15T01:12:35;26.00;39.20
58993;DHT22;44782;0.000;0.000;2022-07-15T01:14:53;26.00;39.10
58993;DHT22;44782;0.000;0.000;2022-07-15T01:17:12;26.00;39.10
58993;DHT22;44782;0.000;0.000;2022-07-15T01:19:28;26.00;38.90
58993;DHT22;44782;0.000;0.000;2022-07-15T01:21:45;25.90;38.80
58993;DHT22;44782;0.000;0.000;2022-07-15T01:24:01;25.90;38.90
58993;DHT22;44782;0.000;0.000;2022-07-15T01:26:17;25.90;38.70
58993;DHT22;44782;0.000;0.000;2022-07-15T01:28:33;25.90;39.10
58993;DHT22;44782;0.000;0.000;2022-07-15T01:30:49;25.80;38.90
58993;DHT22;44782;0.000;0.000;2022-07-15T01:33:04;25.90;38.90
58993;DHT22;44782;0.000;0.000;2022-07-15T01:35:21;25.90;39.00
58993;DHT22;44782;0.000;0.000;2022-07-15T01:37:37;25.90;39.00
58993;DHT22;44782;0.000;0.000;2022-07-15T01:39:52;25.90;38.90
58993;DHT22;44782;0.000;0.000;2022-07-15T01:42:08;25.90;38.90
58993;DHT22;44782;0.000;0.000;2022-07-15T01:44:24;25.80;38.90
58993;DHT22;44782;0.000;0.000;2022-07-15T01:46:40;25.80;39.70
58993;DHT22;44782;0.000;0.000;2022-07-15T01:48:57;25.80;38.60
58993;DHT22;44782;0.000;0.000;2022-07-15T01:51:31;25.80;38.80
58993;DHT22;44782;0.000;0.000;2022-07-15T01:53:47;25.80;39.00
58993;DHT22;44782;0.000;0.000;2022-07-15T01:56:03;25.80;38.90
58993;DHT22;44782;0.000;0.000;2022-07-15T01:58:19;25.80;39.00
58993;DHT22;44782;0.000;0.000;2022-07-15T02:00:34;25.80;38.90
58993;DHT22;44782;0.000;0.000;2022-07-15T02:02:50;25.80;39.00
58993;DHT22;44782;0.000;0.000;2022-07-15T02:05:06;25.90;38.70
58993;DHT22;44782;0.000;0.000;2022-07-15T02:07:22;25.80;38.70
58993;DHT22;44782;0.000;0.000;2022-07-15T02:09:37;25.80;38.80
58993;DHT22;44782;0.000;0.000;2022-07-15T02:11:53;25.80;38.90
58993;DHT22;44782;0.000;0.000;2022-07-15T02:14:09;25.80;38.90
58993;DHT22;44782;0.000;0.000;2022-07-15T02:16:32;25.80;38.80
58993;DHT22;44782;0.000;0.000;2022-07-15T02:18:47;25.80;38.70
58993;DHT22;44782;0.000;0.000;2022-07-15T02:21:04;25.80;38.80
58993;DHT22;44782;0.000;0.000;2022-07-15T02:23:19;25.80;38.70
58993;DHT22;44782;0.000;0.000;2022-07-15T02:25:35;25.80;38.80
58993;DHT22;44782;0.000;0.000;2022-07-15T02:27:52;25.80;38.80
58993;DHT22;44782;0.000;0.000;2022-07-15T02:30:09;25.80;38.80
58993;DHT22;44782;0.000;0.000;2022-07-15T02:32:24;25.80;38.80
58993;DHT22;44782;0.000;0.000;2022-07-15T02:34:40;25.80;38.80
58993;DHT22;44782;0.000;0.000;2022-07-15T02:36:56;25.80;38.80
58993;DHT22;44782;0.000;0.000;2022-07-15T02:39:11;25.80;38.80
58993;DHT22;44782;0.000;0.000;2022-07-15T02:41:27;25.80;38.80
58993;DHT22;44782;0.000;0.000;2022-07-15T02:43:42;25.80;38.80
58993;DHT22;44782;0.000;0.000;2022-07-15T02:45:59;25.80;38.80
58993;DHT22;44782;0.000;0.000;2022-07-15T02:48:14;25.80;38.80
58993;DHT22;44782;0.000;0.000;2022-07-15T02:50:30;25.80;38.80
58993;DHT22;44782;0.000;0.000;2022-07-15T02:52:47;25.70;38.80
58993;DHT22;44782;0.000;0.000;2022-07-15T02:55:03;25.80;38.80
58993;DHT22;44782;0.000;0.000;2022-07-15T02:57:19;25.70;38.70
58993;DHT22;44782;0.000;0.000;2022-07-15T02:59:35;25.70;38.70
58993;DHT22;44782;0.000;0.000;2022-07-15T03:01:51;25.80;38.80
58993;DHT22;44782;0.000;0.000;2022-07-15T03:04:06;25.70;38.70
58993;DHT22;44782;0.000;0.000;2022-07-15T03:06:22;25.70;38.60
58993;DHT22;44782;0.000;0.000;2022-07-15T03:08:38;25.70;38.70
58993;DHT22;44782;0.000;0.000;2022-07-15T03:10:53;25.70;38.70
58993;DHT22;44782;0.000;0.000;2022-07-15T03:13:09;25.70;38.90
58993;DHT22;44782;0.000;0.000;2022-07-15T03:15:25;25.70;38.90
58993;DHT22;44782;0.000;0.000;2022-07-15T03:17:41;25.70;39.00
58993;DHT22;44782;0.000;0.000;2022-07-15T03:19:57;25.70;39.00
58993;DHT22;44782;0.000;0.000;2022-07-15T03:22:12;25.70;39.10
58993;DHT22;44782;0.000;0.000;2022-07-15T03:24:28;25.70;39.10
58993;DHT22;44782;0.000;0.000;2022-07-15T03:26:43;25.70;39.20
58993;DHT22;44782;0.000;0.000;2022-07-15T03:28:59;25.70;39.20
58993;DHT22;44782;0.000;0.000;2022-07-15T03:31:16;25.70;39.10
58993;DHT22;44782;0.000;0.000;2022-07-15T03:33:32;25.70;39.20
58993;DHT22;44782;0.000;0.000;2022-07-15T03:35:47;25.70;39.30
58993;DHT22;44782;0.000;0.000;2022-07-15T03:38:03;25.70;39.30
58993;DHT22;44782;0.000;0.000;2022-07-15T03:40:19;25.70;39.50
58993;DHT22;44782;0.000;0.000;2022-07-15T03:42:35;25.70;39.50
58993;DHT22;44782;0.000;0.000;2022-07-15T03:44:50;25.70;39.60
58993;DHT22;44782;0.000;0.000;2022-07-15T03:47:06;25.70;39.70
58993;DHT22;44782;0.000;0.000;2022-07-15T03:49:22;25.70;39.80
58993;DHT22;44782;0.000;0.000;2022-07-15T03:51:37;25.70;39.90
58993;DHT22;44782;0.000;0.000;2022-07-15T03:53:53;25.70;40.60
58993;DHT22;44782;0.000;0.000;2022-07-15T03:56:09;25.70;39.90
58993;DHT22;44782;0.000;0.000;2022-07-15T03:58:24;25.80;40.10
58993;DHT22;44782;0.000;0.000;2022-07-15T04:00:40;25.80;40.20
58993;DHT22;44782;0.000;0.000;2022-07-15T04:02:56;25.80;40.20
58993;DHT22;44782;0.000;0.000;2022-07-15T04:05:11;25.80;40.30
58993;DHT22;44782;0.000;0.000;2022-07-15T04:07:27;25.70;40.30
58993;DHT22;44782;0.000;0.000;2022-07-15T04:09:42;25.80;40.50
58993;DHT22;44782;0.000;0.000;2022-07-15T04:11:58;25.70;40.50
58993;DHT22;44782;0.000;0.000;2022-07-15T04:14:14;25.70;40.60
58993;DHT22;44782;0.000;0.000;2022-07-15T04:16:30;25.80;40.70
58993;DHT22;44782;0.000;0.000;2022-07-15T04:18:45;25.80;40.70
58993;DHT22;44782;0.000;0.000;2022-07-15T04:21:01;25.80;40.70
58993;DHT22;44782;0.000;0.000;2022-07-15T04:23:17;25.80;40.80
58993;DHT22;44782;0.000;0.000;2022-07-15T04:25:33;25.80;40.80
58993;DHT22;44782;0.000;0.000;2022-07-15T04:27:49;25.80;40.90
58993;DHT22;44782;0.000;0.000;2022-07-15T04:30:06;25.80;41.00
58993;DHT22;44782;0.000;0.000;2022-07-15T04:32:21;25.80;41.80
58993;DHT22;44782;0.000;0.000;2022-07-15T04:34:37;25.80;41.10
58993;DHT22;44782;0.000;0.000;2022-07-15T04:36:53;25.80;41.20
58993;DHT22;44782;0.000;0.000;2022-07-15T04:39:08;25.80;41.30
58993;DHT22;44782;0.000;0.000;2022-07-15T04:41:24;25.80;41.40
58993;DHT22;44782;0.000;0.000;2022-07-15T04:43:39;25.80;41.30
58993;DHT22;44782;0.000;0.000;2022-07-15T04:45:55;25.80;41.40
58993;DHT22;44782;0.000;0.000;2022-07-15T04:48:11;25.80;41.40
58993;DHT22;44782;0.000;0.000;2022-07-15T04:50:45;25.80;41.40
58993;DHT22;44782;0.000;0.000;2022-07-15T04:53:06;25.80;41.40
58993;DHT22;44782;0.000;0.000;2022-07-15T04:55:22;25.80;41.40
58993;DHT22;44782;0.000;0.000;2022-07-15T04:57:38;25.80;41.50
58993;DHT22;44782;0.000;0.000;2022-07-15T04:59:54;25.80;41.60
58993;DHT22;44782;0.000;0.000;2022-07-15T05:02:10;25.70;41.50
58993;DHT22;44782;0.000;0.000;2022-07-15T05:04:25;25.80;41.60
58993;DHT22;44782;0.000;0.000;2022-07-15T05:06:41;25.80;41.60
58993;DHT22;44782;0.000;0.000;2022-07-15T05:08:57;25.80;41.70
58993;DHT22;44782;0.000;0.000;2022-07-15T05:11:13;25.70;41.60
58993;DHT22;44782;0.000;0.000;2022-07-15T05:13:28;25.80;41.70
58993;DHT22;44782;0.000;0.000;2022-07-15T05:15:44;25.70;41.70
58993;DHT22;44782;0.000;0.000;2022-07-15T05:17:59;25.70;41.80
58993;DHT22;44782;0.000;0.000;2022-07-15T05:20:15;25.80;41.90
58993;DHT22;44782;0.000;0.000;2022-07-15T05:22:31;25.80;41.90
58993;DHT22;44782;0.000;0.000;2022-07-15T05:24:46;25.70;41.90
58993;DHT22;44782;0.000;0.000;2022-07-15T05:27:02;25.80;42.00
58993;DHT22;44782;0.000;0.000;2022-07-15T05:29:18;25.70;41.90
58993;DHT22;44782;0.000;0.000;2022-07-15T05:31:37;25.70;42.00
58993;DHT22;44782;0.000;0.000;2022-07-15T05:33:53;25.70;42.00
58993;DHT22;44782;0.000;0.000;2022-07-15T05:36:13;25.80;42.10
58993;DHT22;44782;0.000;0.000;2022-07-15T05:38:29;25.80;42.20
58993;DHT22;44782;0.000;0.000;2022-07-15T05:40:45;25.70;42.10
58993;DHT22;44782;0.000;0.000;2022-07-15T05:43:01;25.70;42.20
58993;DHT22;44782;0.000;0.000;2022-07-15T05:45:16;25.70;42.20
58993;DHT22;44782;0.000;0.000;2022-07-15T05:47:32;25.70;42.20
58993;DHT22;44782;0.000;0.000;2022-07-15T05:49:48;25.80;41.70
58993;DHT22;44782;0.000;0.000;2022-07-15T05:52:03;25.80;41.60
58993;DHT22;44782;0.000;0.000;2022-07-15T05:54:19;25.80;41.60
58993;DHT22;44782;0.000;0.000;2022-07-15T05:56:35;25.80;41.30
58993;DHT22;44782;0.000;0.000;2022-07-15T05:58:50;25.70;41.20
58993;DHT22;44782;0.000;0.000;2022-07-15T06:01:06;25.70;41.10
58993;DHT22;44782;0.000;0.000;2022-07-15T06:03:22;25.70;41.00
58993;DHT22;44782;0.000;0.000;2022-07-15T06:05:37;25.60;40.90
58993;DHT22;44782;0.000;0.000;2022-07-15T06:07:54;25.60;41.20
58993;DHT22;44782;0.000;0.000;2022-07-15T06:10:10;25.60;41.20
58993;DHT22;44782;0.000;0.000;2022-07-15T06:12:26;25.60;41.20
58993;DHT22;44782;0.000;0.000;2022-07-15T06:14:41;25.60;41.20
58993;DHT22;44782;0.000;0.000;2022-07-15T06:16:57;25.70;41.40
58993;DHT22;44782;0.000;0.000;2022-07-15T06:19:13;25.70;41.30
58993;DHT22;44782;0.000;0.000;2022-07-15T06:21:28;25.80;41.10
58993;DHT22;44782;0.000;0.000;2022-07-15T06:23:45;25.80;40.80
58993;DHT22;44782;0.000;0.000;2022-07-15T06:26:01;25.70;40.70
58993;DHT22;44782;0.000;0.000;2022-07-15T06:28:16;25.80;40.70
58993;DHT22;44782;0.000;0.000;2022-07-15T06:30:32;25.80;40.60
58993;DHT22;44782;0.000;0.000;2022-07-15T06:32:48;25.80;40.60
58993;DHT22;44782;0.000;0.000;2022-07-15T06:35:04;25.80;40.50
58993;DHT22;44782;0.000;0.000;2022-07-15T06:37:20;25.80;40.60
58993;DHT22;44782;0.000;0.000;2022-07-15T06:39:37;25.80;40.40
58993;DHT22;44782;0.000;0.000;2022-07-15T06:41:52;25.80;40.40
58993;DHT22;44782;0.000;0.000;2022-07-15T06:44:08;25.80;40.30
58993;DHT22;44782;0.000;0.000;2022-07-15T06:46:24;25.70;40.20
58993;DHT22;44782;0.000;0.000;2022-07-15T06:48:39;25.60;40.50
58993;DHT22;44782;0.000;0.000;2022-07-15T06:50:56;25.60;40.50
58993;DHT22;44782;0.000;0.000;2022-07-15T06:53:11;25.70;40.40
58993;DHT22;44782;0.000;0.000;2022-07-15T06:55:27;25.70;40.40
58993;DHT22;44782;0.000;0.000;2022-07-15T06:57:43;25.70;40.50
58993;DHT22;44782;0.000;0.000;2022-07-15T07:00:00;25.80;41.10
58993;DHT22;44782;0.000;0.000;2022-07-15T07:02:16;25.80;40.30
58993;DHT22;44782;0.000;0.000;2022-07-15T07:04:32;25.80;40.10
58993;DHT22;44782;0.000;0.000;2022-07-15T07:06:48;25.70;39.80
58993;DHT22;44782;0.000;0.000;2022-07-15T07:09:04;25.70;39.90
58993;DHT22;44782;0.000;0.000;2022-07-15T07:11:20;25.70;40.00
58993;DHT22;44782;0.000;0.000;2022-07-15T07:13:41;25.70;40.00
58993;DHT22;44782;0.000;0.000;2022-07-15T07:15:57;25.80;39.80
58993;DHT22;44782;0.000;0.000;2022-07-15T07:18:14;25.80;39.70
58993;DHT22;44782;0.000;0.000;2022-07-15T07:20:29;25.80;39.70
58993;DHT22;44782;0.000;0.000;2022-07-15T07:22:45;25.90;39.70
58993;DHT22;44782;0.000;0.000;2022-07-15T07:25:01;26.00;39.80
58993;DHT22;44782;0.000;0.000;2022-07-15T07:27:16;26.00;39.60
58993;DHT22;44782;0.000;0.000;2022-07-15T07:29:32;26.00;39.60
58993;DHT22;44782;0.000;0.000;2022-07-15T07:31:51;26.00;39.30
58993;DHT22;44782;0.000;0.000;2022-07-15T07:34:07;26.00;39.20
58993;DHT22;44782;0.000;0.000;2022-07-15T07:36:24;26.00;39.40
58993;DHT22;44782;0.000;0.000;2022-07-15T07:38:39;26.00;39.30
58993;DHT22;44782;0.000;0.000;2022-07-15T07:40:55;26.10;39.10
58993;DHT22;44782;0.000;0.000;2022-07-15T07:43:10;26.10;39.00
58993;DHT22;44782;0.000;0.000;2022-07-15T07:45:26;26.10;39.00
58993;DHT22;44782;0.000;0.000;2022-07-15T07:47:44;26.10;38.60
58993;DHT22;44782;0.000;0.000;2022-07-15T07:49:59;26.10;38.70
58993;DHT22;44782;0.000;0.000;2022-07-15T07:52:15;26.10;38.70
58993;DHT22;44782;0.000;0.000;2022-07-15T07:54:31;26.10;38.40
58993;DHT22;44782;0.000;0.000;2022-07-15T07:56:47;26.10;38.40
58993;DHT22;44782;0.000;0.000;2022-07-15T07:59:03;26.10;37.90
58993;DHT22;44782;0.000;0.000;2022-07-15T08:01:19;26.20;38.10
58993;DHT22;44782;0.000;0.000;2022-07-15T08:03:34;26.20;38.00
58993;DHT22;44782;0.000;0.000;2022-07-15T08:05:50;26.10;37.50
58993;DHT22;44782;0.000;0.000;2022-07-15T08:10:28;26.10;36.60
58993;DHT22;44782;0.000;0.000;2022-07-15T08:12:44;26.10;37.10
58993;DHT22;44782;0.000;0.000;2022-07-15T08:15:00;26.00;37.30
58993;DHT22;44782;0.000;0.000;2022-07-15T08:17:16;26.00;37.40
58993;DHT22;44782;0.000;0.000;2022-07-15T08:19:31;26.00;37.10
58993;DHT22;44782;0.000;0.000;2022-07-15T08:21:47;26.00;37.30
58993;DHT22;44782;0.000;0.000;2022-07-15T08:24:03;26.00;37.10
58993;DHT22;44782;0.000;0.000;2022-07-15T08:26:18;26.00;36.80
58993;DHT22;44782;0.000;0.000;2022-07-15T08:28:38;26.00;36.90
58993;DHT22;44782;0.000;0.000;2022-07-15T08:30:54;26.00;36.60
58993;DHT22;44782;0.000;0.000;2022-07-15T08:33:09;26.00;36.20
58993;DHT22;44782;0.000;0.000;2022-07-15T08:35:26;26.00;36.20
58993;DHT22;44782;0.000;0.000;2022-07-15T08:37:42;26.00;36.40
58993;DHT22;44782;0.000;0.000;2022-07-15T08:39:58;26.00;36.40
58993;DHT22;44782;0.000;0.000;2022-07-15T08:42:13;26.00;36.30
58993;DHT22;44782;0.000;0.000;2022-07-15T08:44:29;26.00;36.50
58993;DHT22;44782;0.000;0.000;2022-07-15T08:46:47;26.00;36.00
58993;DHT22;44782;0.000;0.000;2022-07-15T08:49:16;26.00;36.20
58993;DHT22;44782;0.000;0.000;2022-07-15T08:51:40;26.00;35.70
58993;DHT22;44782;0.000;0.000;2022-07-15T08:53:56;26.00;35.60
58993;DHT22;44782;0.000;0.000;2022-07-15T08:56:12;26.00;35.80
58993;DHT22;44782;0.000;0.000;2022-07-15T08:58:28;26.00;35.00
58993;DHT22;44782;0.000;0.000;2022-07-15T09:00:43;26.00;35.00
58993;DHT22;44782;0.000;0.000;2022-07-15T09:03:00;25.90;35.10
58993;DHT22;44782;0.000;0.000;2022-07-15T09:05:26;25.90;35.20
58993;DHT22;44782;0.000;0.000;2022-07-15T09:08:01;26.00;34.90
58993;DHT22;44782;0.000;0.000;2022-07-15T09:10:17;26.00;34.20
58993;DHT22;44782;0.000;0.000;2022-07-15T09:12:40;25.90;35.30
58993;DHT22;44782;0.000;0.000;2022-07-15T09:14:57;25.90;34.50
58993;DHT22;44782;0.000;0.000;2022-07-15T09:19:28;25.90;34.40
58993;DHT22;44782;0.000;0.000;2022-07-15T09:22:00;25.90;34.30
58993;DHT22;44782;0.000;0.000;2022-07-15T09:24:18;25.80;33.60
58993;DHT22;44782;0.000;0.000;2022-07-15T09:26:34;25.80;34.30
58993;DHT22;44782;0.000;0.000;2022-07-15T09:28:53;25.80;34.20
58993;DHT22;44782;0.000;0.000;2022-07-15T09:31:09;25.80;34.70
58993;DHT22;44782;0.000;0.000;2022-07-15T09:33:43;25.80;33.70
58993;DHT22;44782;0.000;0.000;2022-07-15T09:38:24;25.80;32.90
58993;DHT22;44782;0.000;0.000;2022-07-15T09:40:49;25.80;33.30
58993;DHT22;44782;0.000;0.000;2022-07-15T09:43:05;25.80;32.70
58993;DHT22;44782;0.000;0.000;2022-07-15T09:45:22;25.70;33.10
58993;DHT22;44782;0.000;0.000;2022-07-15T09:47:38;25.80;33.10
58993;DHT22;44782;0.000;0.000;2022-07-15T09:49:54;25.80;32.90
58993;DHT22;44782;0.000;0.000;2022-07-15T09:52:11;25.70;33.00
58993;DHT22;44782;0.000;0.000;2022-07-15T09:54:34;25.70;32.90
58993;DHT22;44782;0.000;0.000;2022-07-15T09:56:51;25.70;32.20
58993;DHT22;44782;0.000;0.000;2022-07-15T09:59:08;25.70;32.90
58993;DHT22;44782;0.000;0.000;2022-07-15T10:01:25;25.70;33.00
58993;DHT22;44782;0.000;0.000;2022-07-15T10:03:41;25.80;33.30
58993;DHT22;44782;0.000;0.000;2022-07-15T10:05:57;25.80;33.20
58993;DHT22;44782;0.000;0.000;2022-07-15T10:08:15;25.80;33.40
58993;DHT22;44782;0.000;0.000;2022-07-15T10:10:35;25.80;33.20
58993;DHT22;44782;0.000;0.000;2022-07-15T10:14:00;25.70;32.90
58993;DHT22;44782;0.000;0.000;2022-07-15T10:16:03;25.80;32.20
58993;DHT22;44782;0.000;0.000;2022-07-15T10:21:17;25.70;32.40
58993;DHT22;44782;0.000;0.000;2022-07-15T10:23:56;25.70;32.60
58993;DHT22;44782;0.000;0.000;2022-07-15T10:28:56;25.70;32.90
58993;DHT22;44782;0.000;0.000;2022-07-15T10:33:30;25.70;33.00
58993;DHT22;44782;0.000;0.000;2022-07-15T10:35:50;25.60;32.70
58993;DHT22;44782;0.000;0.000;2022-07-15T10:38:36;25.70;32.30
58993;DHT22;44782;0.000;0.000;2022-07-15T10:41:14;25.70;31.30
58993;DHT22;44782;0.000;0.000;2022-07-15T10:46:22;25.60;32.50
58993;DHT22;44782;0.000;0.000;2022-07-15T10:48:38;25.60;32.20
58993;DHT22;44782;0.000;0.000;2022-07-15T10:50:54;25.60;32.80
58993;DHT22;44782;0.000;0.000;2022-07-15T10:53:19;25.60;32.70
58993;DHT22;44782;0.000;0.000;2022-07-15T10:55:35;25.70;32.40
58993;DHT22;44782;0.000;0.000;2022-07-15T10:57:54;25.60;32.60
58993;DHT22;44782;0.000;0.000;2022-07-15T11:00:32;25.60;32.30
58993;DHT22;44782;0.000;0.000;2022-07-15T11:05:25;25.60;32.00
58993;DHT22;44782;0.000;0.000;2022-07-15T11:07:40;25.60;32.80
58993;DHT22;44782;0.000;0.000;2022-07-15T11:12:12;25.60;32.90
58993;DHT22;44782;0.000;0.000;2022-07-15T11:14:46;25.60;32.90
58993;DHT22;44782;0.000;0.000;2022-07-15T11:17:02;25.60;32.50
58993;DHT22;44782;0.000;0.000;2022-07-15T11:19:19;25.60;32.90
58993;DHT22;44782;0.000;0.000;2022-07-15T11:21:35;25.60;33.00
58993;DHT22;44782;0.000;0.000;2022-07-15T11:23:52;25.60;32.90
58993;DHT22;44782;0.000;0.000;2022-07-15T11:26:11;25.60;33.00
58993;DHT22;44782;0.000;0.000;2022-07-15T11:28:27;25.60;33.10
58993;DHT22;44782;0.000;0.000;2022-07-15T11:30:50;25.60;33.00
58993;DHT22;44782;0.000;0.000;2022-07-15T11:33:14;25.60;32.40
58993;DHT22;44782;0.000;0.000;2022-07-15T11:35:32;25.60;32.60
58993;DHT22;44782;0.000;0.000;2022-07-15T11:37:59;25.60;32.70
58993;DHT22;44782;0.000;0.000;2022-07-15T11:40:17;25.60;32.70
58993;DHT22;44782;0.000;0.000;2022-07-15T11:42:52;25.50;32.50
58993;DHT22;44782;0.000;0.000;2022-07-15T11:45:37;25.50;32.40
58993;DHT22;44782;0.000;0.000;2022-07-15T11:47:53;25.50;31.60
58993;DHT22;44782;0.000;0.000;2022-07-15T11:50:09;25.50;32.30
58993;DHT22;44782;0.000;0.000;2022-07-15T11:52:25;25.60;32.30
58993;DHT22;44782;0.000;0.000;2022-07-15T11:54:41;25.60;32.40
58993;DHT22;44782;0.000;0.000;2022-07-15T11:57:10;25.60;32.30
58993;DHT22;44782;0.000;0.000;2022-07-15T11:59:29;25.60;32.00
58993;DHT22;44782;0.000;0.000;2022-07-15T12:01:45;25.50;32.10
58993;DHT22;44782;0.000;0.000;2022-07-15T12:04:00;25.60;32.00
58993;DHT22;44782;0.000;0.000;2022-07-15T12:06:24;25.50;31.90
58993;DHT22;44782;0.000;0.000;2022-07-15T12:10:59;25.60;32.00
58993;DHT22;44782;0.000;0.000;2022-07-15T12:13:15;25.60;32.10
58993;DHT22;44782;0.000;0.000;2022-07-15T12:15:33;25.60;32.20
58993;DHT22;44782;0.000;0.000;2022-07-15T12:17:49;25.50;32.10
58993;DHT22;44782;0.000;0.000;2022-07-15T12:20:05;25.60;32.00
58993;DHT22;44782;0.000;0.000;2022-07-15T12:22:22;25.50;31.80
58993;DHT22;44782;0.000;0.000;2022-07-15T12:24:41;25.60;32.10
58993;DHT22;44782;0.000;0.000;2022-07-15T12:26:58;25.60;31.90
58993;DHT22;44782;0.000;0.000;2022-07-15T12:29:14;25.60;31.80
58993;DHT22;44782;0.000;0.000;2022-07-15T12:31:32;25.60;32.00
58993;DHT22;44782;0.000;0.000;2022-07-15T12:33:50;25.60;32.00
58993;DHT22;44782;0.000;0.000;2022-07-15T12:38:30;25.60;31.70
58993;DHT22;44782;0.000;0.000;2022-07-15T12:40:46;25.60;31.90
58993;DHT22;44782;0.000;0.000;2022-07-15T12:43:01;25.60;32.00
58993;DHT22;44782;0.000;0.000;2022-07-15T12:47:37;25.50;30.90
58993;DHT22;44782;0.000;0.000;2022-07-15T12:50:11;25.50;31.50
58993;DHT22;44782;0.000;0.000;2022-07-15T12:52:34;25.60;31.60
58993;DHT22;44782;0.000;0.000;2022-07-15T12:54:53;25.50;31.40
58993;DHT22;44782;0.000;0.000;2022-07-15T12:57:39;25.60;31.50
58993;DHT22;44782;0.000;0.000;2022-07-15T12:59:58;25.60;31.20
58993;DHT22;44782;0.000;0.000;2022-07-15T13:02:14;25.60;31.50
58993;DHT22;44782;0.000;0.000;2022-07-15T13:04:30;25.60;31.40
58993;DHT22;44782;0.000;0.000;2022-07-15T13:06:45;25.60;31.80
58993;DHT22;44782;0.000;0.000;2022-07-15T13:09:01;25.60;31.60
58993;DHT22;44782;0.000;0.000;2022-07-15T13:11:17;25.60;31.70
58993;DHT22;44782;0.000;0.000;2022-07-15T13:13:38;25.60;31.80
58993;DHT22;44782;0.000;0.000;2022-07-15T13:15:54;25.60;31.60
58993;DHT22;44782;0.000;0.000;2022-07-15T13:18:10;25.60;31.90
58993;DHT22;44782;0.000;0.000;2022-07-15T13:20:27;25.70;32.30
58993;DHT22;44782;0.000;0.000;2022-07-15T13:22:43;25.70;32.50
58993;DHT22;44782;0.000;0.000;2022-07-15T13:24:59;25.70;32.60
58993;DHT22;44782;0.000;0.000;2022-07-15T13:27:15;25.70;32.40
58993;DHT22;44782;0.000;0.000;2022-07-15T13:29:30;25.70;32.50
58993;DHT22;44782;0.000;0.000;2022-07-15T13:31:46;25.70;32.60
58993;DHT22;44782;0.000;0.000;2022-07-15T13:34:02;25.70;32.70
58993;DHT22;44782;0.000;0.000;2022-07-15T13:36:17;25.70;32.70
58993;DHT22;44782;0.000;0.000;2022-07-15T13:38:33;25.70;32.60
58993;DHT22;44782;0.000;0.000;2022-07-15T13:40:48;25.70;32.50
58993;DHT22;44782;0.000;0.000;2022-07-15T13:43:04;25.70;32.70
58993;DHT22;44782;0.000;0.000;2022-07-15T13:45:20;25.70;32.70
58993;DHT22;44782;0.000;0.000;2022-07-15T13:47:36;25.70;32.30
58993;DHT22;44782;0.000;0.000;2022-07-15T13:49:52;25.70;32.40
58993;DHT22;44782;0.000;0.000;2022-07-15T13:52:26;25.70;32.30
58993;DHT22;44782;0.000;0.000;2022-07-15T13:54:41;25.70;32.50
58993;DHT22;44782;0.000;0.000;2022-07-15T13:56:57;25.70;32.50
58993;DHT22;44782;0.000;0.000;2022-07-15T13:59:12;25.70;32.70
58993;DHT22;44782;0.000;0.000;2022-07-15T14:01:29;25.70;32.60
58993;DHT22;44782;0.000;0.000;2022-07-15T14:03:47;25.70;32.50
58993;DHT22;44782;0.000;0.000;2022-07-15T14:06:02;25.70;32.60
58993;DHT22;44782;0.000;0.000;2022-07-15T14:08:18;25.70;32.70
58993;DHT22;44782;0.000;0.000;2022-07-15T14:10:34;25.70;32.90
58993;DHT22;44782;0.000;0.000;2022-07-15T14:12:49;25.70;32.80
58993;DHT22;44782;0.000;0.000;2022-07-15T14:15:07;25.70;33.00
58993;DHT22;44782;0.000;0.000;2022-07-15T14:17:22;25.80;32.80
58993;DHT22;44782;0.000;0.000;2022-07-15T14:19:38;25.70;32.90
58993;DHT22;44782;0.000;0.000;2022-07-15T14:21:54;25.70;32.90
58993;DHT22;44782;0.000;0.000;2022-07-15T14:24:10;25.70;32.90
58993;DHT22;44782;0.000;0.000;2022-07-15T14:26:25;25.70;32.80
58993;DHT22;44782;0.000;0.000;2022-07-15T14:28:42;25.80;32.60
58993;DHT22;44782;0.000;0.000;2022-07-15T14:30:58;25.70;32.10
58993;DHT22;44782;0.000;0.000;2022-07-15T14:33:13;25.70;32.50
58993;DHT22;44782;0.000;0.000;2022-07-15T14:35:29;25.80;32.40
58993;DHT22;44782;0.000;0.000;2022-07-15T14:37:45;25.70;32.60
58993;DHT22;44782;0.000;0.000;2022-07-15T14:40:02;25.80;32.60
58993;DHT22;44782;0.000;0.000;2022-07-15T14:42:18;25.80;32.50
58993;DHT22;44782;0.000;0.000;2022-07-15T14:44:34;25.80;32.60
58993;DHT22;44782;0.000;0.000;2022-07-15T14:46:49;25.80;32.70
58993;DHT22;44782;0.000;0.000;2022-07-15T14:49:05;25.80;32.60
58993;DHT22;44782;0.000;0.000;2022-07-15T14:51:21;25.80;32.50
58993;DHT22;44782;0.000;0.000;2022-07-15T14:53:36;25.80;32.40
58993;DHT22;44782;0.000;0.000;2022-07-15T14:55:52;25.80;32.40
58993;DHT22;44782;0.000;0.000;2022-07-15T14:58:08;25.80;32.40
58993;DHT22;44782;0.000;0.000;2022-07-15T15:00:24;25.80;32.50
58993;DHT22;44782;0.000;0.000;2022-07-15T15:02:39;25.80;32.40
58993;DHT22;44782;0.000;0.000;2022-07-15T15:04:55;25.80;32.20
58993;DHT22;44782;0.000;0.000;2022-07-15T15:07:10;25.80;32.30
58993;DHT22;44782;0.000;0.000;2022-07-15T15:09:27;25.80;32.60
58993;DHT22;44782;0.000;0.000;2022-07-15T15:11:42;25.80;32.60